sensor_id;sensor_type;location;lat;lon;timestamp;P1;durP1;ratioP1;P2;durP2;ratioP2
40649;SDS011;26342;42.826;23.992;2022-07-21T00:00:54;2.35;;;1.40;;
40649;SDS011;26342;42.826;23.992;2022-07-21T00:03:19;2.53;;;1.60;;
40649;SDS011;26342;42.826;23.992;2022-07-21T00:05:45;2.25;;;1.65;;
40649;SDS011;26342;42.826;23.992;2022-07-21T00:08:11;2.83;;;1.58;;
40649;SDS011;26342;42.826;23.992;2022-07-21T00:10:38;2.38;;;1.60;;
40649;SDS011;26342;42.826;23.992;2022-07-21T00:13:03;1.50;;;1.30;;
40649;SDS011;26342;42.826;23.992;2022-07-21T00:15:29;2.60;;;1.80;;
40649;SDS011;26342;42.826;23.992;2022-07-21T00:17:54;2.95;;;1.90;;
40649;SDS011;26342;42.826;23.992;2022-07-21T00:20:20;2.17;;;1.70;;
40649;SDS011;26342;42.826;23.992;2022-07-21T00:22:45;2.15;;;1.42;;
40649;SDS011;26342;42.826;23.992;2022-07-21T00:25:12;3.03;;;1.67;;
40649;SDS011;26342;42.826;23.992;2022-07-21T00:27:39;2.85;;;1.77;;
40649;SDS011;26342;42.826;23.992;2022-07-21T00:30:05;2.20;;;1.50;;
40649;SDS011;26342;42.826;23.992;2022-07-21T00:32:32;2.53;;;1.73;;
40649;SDS011;26342;42.826;23.992;2022-07-21T00:34:58;2.20;;;1.45;;
40649;SDS011;26342;42.826;23.992;2022-07-21T00:37:23;2.33;;;1.48;;
40649;SDS011;26342;42.826;23.992;2022-07-21T00:39:52;1.73;;;1.42;;
40649;SDS011;26342;42.826;23.992;2022-07-21T00:42:25;2.20;;;1.58;;
40649;SDS011;26342;42.826;23.992;2022-07-21T00:44:52;4.45;;;1.63;;
40649;SDS011;26342;42.826;23.992;2022-07-21T00:47:21;3.20;;;1.60;;
40649;SDS011;26342;42.826;23.992;2022-07-21T00:49:51;2.28;;;1.50;;
40649;SDS011;26342;42.826;23.992;2022-07-21T00:52:17;2.40;;;1.70;;
40649;SDS011;26342;42.826;23.992;2022-07-21T00:54:44;1.67;;;1.50;;
40649;SDS011;26342;42.826;23.992;2022-07-21T00:57:10;2.08;;;1.60;;
40649;SDS011;26342;42.826;23.992;2022-07-21T00:59:35;2.28;;;1.73;;
40649;SDS011;26342;42.826;23.992;2022-07-21T01:02:01;2.35;;;1.70;;
40649;SDS011;26342;42.826;23.992;2022-07-21T01:04:27;1.73;;;1.45;;
40649;SDS011;26342;42.826;23.992;2022-07-21T01:06:53;2.35;;;1.90;;
40649;SDS011;26342;42.826;23.992;2022-07-21T01:09:19;1.88;;;1.60;;
40649;SDS011;26342;42.826;23.992;2022-07-21T01:11:45;2.35;;;1.80;;
40649;SDS011;26342;42.826;23.992;2022-07-21T01:14:11;2.05;;;1.80;;
40649;SDS011;26342;42.826;23.992;2022-07-21T01:16:37;2.00;;;1.63;;
40649;SDS011;26342;42.826;23.992;2022-07-21T01:19:03;3.35;;;1.58;;
40649;SDS011;26342;42.826;23.992;2022-07-21T01:21:31;3.70;;;1.85;;
40649;SDS011;26342;42.826;23.992;2022-07-21T01:24:00;2.10;;;1.75;;
40649;SDS011;26342;42.826;23.992;2022-07-21T01:26:26;4.45;;;1.65;;
40649;SDS011;26342;42.826;23.992;2022-07-21T01:28:53;2.63;;;1.60;;
40649;SDS011;26342;42.826;23.992;2022-07-21T01:31:18;2.42;;;1.90;;
40649;SDS011;26342;42.826;23.992;2022-07-21T01:33:44;2.20;;;1.90;;
40649;SDS011;26342;42.826;23.992;2022-07-21T01:36:10;4.72;;;1.65;;
40649;SDS011;26342;42.826;23.992;2022-07-21T01:38:35;2.67;;;1.80;;
40649;SDS011;26342;42.826;23.992;2022-07-21T01:41:20;1.90;;;1.70;;
40649;SDS011;26342;42.826;23.992;2022-07-21T01:43:55;1.73;;;1.48;;
40649;SDS011;26342;42.826;23.992;2022-07-21T01:46:21;2.08;;;1.60;;
40649;SDS011;26342;42.826;23.992;2022-07-21T01:48:47;2.90;;;1.60;;
40649;SDS011;26342;42.826;23.992;2022-07-21T01:51:12;2.30;;;1.63;;
40649;SDS011;26342;42.826;23.992;2022-07-21T01:53:38;2.83;;;1.60;;
40649;SDS011;26342;42.826;23.992;2022-07-21T01:56:04;3.60;;;1.90;;
40649;SDS011;26342;42.826;23.992;2022-07-21T01:58:30;2.55;;;1.92;;
40649;SDS011;26342;42.826;23.992;2022-07-21T02:00:56;4.25;;;1.88;;
40649;SDS011;26342;42.826;23.992;2022-07-21T02:03:22;2.35;;;1.90;;
40649;SDS011;26342;42.826;23.992;2022-07-21T02:05:47;2.35;;;1.95;;
40649;SDS011;26342;42.826;23.992;2022-07-21T02:08:12;1.77;;;1.55;;
40649;SDS011;26342;42.826;23.992;2022-07-21T02:10:38;3.03;;;1.85;;
40649;SDS011;26342;42.826;23.992;2022-07-21T02:13:03;2.60;;;1.90;;
40649;SDS011;26342;42.826;23.992;2022-07-21T02:15:29;2.25;;;1.85;;
40649;SDS011;26342;42.826;23.992;2022-07-21T02:17:56;2.60;;;2.15;;
40649;SDS011;26342;42.826;23.992;2022-07-21T02:20:21;2.65;;;1.60;;
40649;SDS011;26342;42.826;23.992;2022-07-21T02:22:47;2.40;;;1.70;;
40649;SDS011;26342;42.826;23.992;2022-07-21T02:25:13;2.88;;;2.05;;
40649;SDS011;26342;42.826;23.992;2022-07-21T02:27:39;2.55;;;1.90;;
40649;SDS011;26342;42.826;23.992;2022-07-21T02:30:05;1.90;;;1.70;;
40649;SDS011;26342;42.826;23.992;2022-07-21T02:32:31;2.78;;;2.10;;
40649;SDS011;26342;42.826;23.992;2022-07-21T02:34:56;4.63;;;2.30;;
40649;SDS011;26342;42.826;23.992;2022-07-21T02:37:22;4.07;;;2.55;;
40649;SDS011;26342;42.826;23.992;2022-07-21T02:39:47;2.45;;;1.75;;
40649;SDS011;26342;42.826;23.992;2022-07-21T02:42:13;2.88;;;2.20;;
40649;SDS011;26342;42.826;23.992;2022-07-21T02:44:38;2.55;;;2.10;;
40649;SDS011;26342;42.826;23.992;2022-07-21T02:47:04;2.70;;;1.90;;
40649;SDS011;26342;42.826;23.992;2022-07-21T02:49:29;2.95;;;1.80;;
40649;SDS011;26342;42.826;23.992;2022-07-21T02:51:55;2.50;;;1.90;;
40649;SDS011;26342;42.826;23.992;2022-07-21T02:54:20;2.45;;;1.98;;
40649;SDS011;26342;42.826;23.992;2022-07-21T02:56:45;2.33;;;1.83;;
40649;SDS011;26342;42.826;23.992;2022-07-21T02:59:11;4.38;;;2.30;;
40649;SDS011;26342;42.826;23.992;2022-07-21T03:01:36;4.10;;;2.10;;
40649;SDS011;26342;42.826;23.992;2022-07-21T03:04:02;3.10;;;2.20;;
40649;SDS011;26342;42.826;23.992;2022-07-21T03:06:27;2.95;;;2.42;;
40649;SDS011;26342;42.826;23.992;2022-07-21T03:08:52;2.85;;;2.13;;
40649;SDS011;26342;42.826;23.992;2022-07-21T03:11:18;3.15;;;2.08;;
40649;SDS011;26342;42.826;23.992;2022-07-21T03:13:43;2.38;;;1.83;;
40649;SDS011;26342;42.826;23.992;2022-07-21T03:16:09;3.17;;;2.00;;
40649;SDS011;26342;42.826;23.992;2022-07-21T03:18:34;3.55;;;2.50;;
40649;SDS011;26342;42.826;23.992;2022-07-21T03:21:00;3.88;;;2.40;;
40649;SDS011;26342;42.826;23.992;2022-07-21T03:23:25;2.47;;;1.98;;
40649;SDS011;26342;42.826;23.992;2022-07-21T03:25:51;4.03;;;2.13;;
40649;SDS011;26342;42.826;23.992;2022-07-21T03:28:16;2.88;;;2.42;;
40649;SDS011;26342;42.826;23.992;2022-07-21T03:30:42;3.53;;;2.25;;
40649;SDS011;26342;42.826;23.992;2022-07-21T03:33:07;2.75;;;2.03;;
40649;SDS011;26342;42.826;23.992;2022-07-21T03:35:33;2.90;;;2.40;;
40649;SDS011;26342;42.826;23.992;2022-07-21T03:38:00;4.20;;;2.40;;
40649;SDS011;26342;42.826;23.992;2022-07-21T03:40:30;3.10;;;2.40;;
40649;SDS011;26342;42.826;23.992;2022-07-21T03:42:58;4.63;;;2.38;;
40649;SDS011;26342;42.826;23.992;2022-07-21T03:45:26;3.47;;;2.80;;
40649;SDS011;26342;42.826;23.992;2022-07-21T03:47:55;4.90;;;3.08;;
40649;SDS011;26342;42.826;23.992;2022-07-21T03:50:21;5.25;;;2.78;;
40649;SDS011;26342;42.826;23.992;2022-07-21T03:52:46;6.35;;;3.60;;
40649;SDS011;26342;42.826;23.992;2022-07-21T03:55:12;5.10;;;3.22;;
40649;SDS011;26342;42.826;23.992;2022-07-21T03:57:58;5.18;;;3.20;;
40649;SDS011;26342;42.826;23.992;2022-07-21T04:00:27;6.15;;;3.05;;
40649;SDS011;26342;42.826;23.992;2022-07-21T04:02:59;4.75;;;3.13;;
40649;SDS011;26342;42.826;23.992;2022-07-21T04:05:25;4.53;;;3.50;;
40649;SDS011;26342;42.826;23.992;2022-07-21T04:07:51;5.03;;;3.10;;
40649;SDS011;26342;42.826;23.992;2022-07-21T04:10:18;12.52;;;5.03;;
40649;SDS011;26342;42.826;23.992;2022-07-21T04:12:46;8.25;;;4.93;;
40649;SDS011;26342;42.826;23.992;2022-07-21T04:15:13;7.05;;;4.22;;
40649;SDS011;26342;42.826;23.992;2022-07-21T04:17:39;9.25;;;4.85;;
40649;SDS011;26342;42.826;23.992;2022-07-21T04:20:05;9.43;;;4.60;;
40649;SDS011;26342;42.826;23.992;2022-07-21T04:22:32;8.68;;;4.53;;
40649;SDS011;26342;42.826;23.992;2022-07-21T04:24:57;16.98;;;6.30;;
40649;SDS011;26342;42.826;23.992;2022-07-21T04:27:24;10.52;;;5.40;;
40649;SDS011;26342;42.826;23.992;2022-07-21T04:29:50;7.85;;;4.57;;
40649;SDS011;26342;42.826;23.992;2022-07-21T04:32:15;9.65;;;4.88;;
40649;SDS011;26342;42.826;23.992;2022-07-21T04:34:41;7.15;;;3.90;;
40649;SDS011;26342;42.826;23.992;2022-07-21T04:37:06;6.10;;;4.05;;
40649;SDS011;26342;42.826;23.992;2022-07-21T04:39:32;6.95;;;3.90;;
40649;SDS011;26342;42.826;23.992;2022-07-21T04:41:57;8.02;;;3.60;;
40649;SDS011;26342;42.826;23.992;2022-07-21T04:44:23;6.22;;;3.55;;
40649;SDS011;26342;42.826;23.992;2022-07-21T04:46:48;7.13;;;4.00;;
40649;SDS011;26342;42.826;23.992;2022-07-21T04:49:14;7.00;;;4.22;;
40649;SDS011;26342;42.826;23.992;2022-07-21T04:51:39;5.60;;;4.25;;
40649;SDS011;26342;42.826;23.992;2022-07-21T04:54:05;9.70;;;5.60;;
40649;SDS011;26342;42.826;23.992;2022-07-21T04:56:31;10.27;;;4.05;;
40649;SDS011;26342;42.826;23.992;2022-07-21T04:58:58;7.40;;;4.38;;
40649;SDS011;26342;42.826;23.992;2022-07-21T05:01:23;9.20;;;3.65;;
40649;SDS011;26342;42.826;23.992;2022-07-21T05:03:48;5.82;;;3.13;;
40649;SDS011;26342;42.826;23.992;2022-07-21T05:06:14;4.70;;;3.42;;
40649;SDS011;26342;42.826;23.992;2022-07-21T05:08:39;7.97;;;3.00;;
40649;SDS011;26342;42.826;23.992;2022-07-21T05:11:05;4.22;;;3.10;;
40649;SDS011;26342;42.826;23.992;2022-07-21T05:13:30;4.03;;;3.10;;
40649;SDS011;26342;42.826;23.992;2022-07-21T05:15:55;8.65;;;4.10;;
40649;SDS011;26342;42.826;23.992;2022-07-21T05:18:21;8.93;;;3.45;;
40649;SDS011;26342;42.826;23.992;2022-07-21T05:20:46;7.60;;;3.95;;
40649;SDS011;26342;42.826;23.992;2022-07-21T05:23:12;5.60;;;3.63;;
40649;SDS011;26342;42.826;23.992;2022-07-21T05:25:37;6.32;;;4.00;;
40649;SDS011;26342;42.826;23.992;2022-07-21T05:28:03;10.45;;;5.38;;
40649;SDS011;26342;42.826;23.992;2022-07-21T05:30:32;8.60;;;4.18;;
40649;SDS011;26342;42.826;23.992;2022-07-21T05:32:57;12.32;;;4.78;;
40649;SDS011;26342;42.826;23.992;2022-07-21T05:35:23;5.85;;;3.38;;
40649;SDS011;26342;42.826;23.992;2022-07-21T05:37:48;9.70;;;4.05;;
40649;SDS011;26342;42.826;23.992;2022-07-21T05:40:14;7.55;;;3.08;;
40649;SDS011;26342;42.826;23.992;2022-07-21T05:42:40;4.80;;;3.03;;
40649;SDS011;26342;42.826;23.992;2022-07-21T05:45:05;9.23;;;3.13;;
40649;SDS011;26342;42.826;23.992;2022-07-21T05:47:31;7.72;;;3.47;;
40649;SDS011;26342;42.826;23.992;2022-07-21T05:49:57;6.03;;;2.95;;
40649;SDS011;26342;42.826;23.992;2022-07-21T05:52:23;3.00;;;2.20;;
40649;SDS011;26342;42.826;23.992;2022-07-21T05:54:49;4.40;;;2.50;;
40649;SDS011;26342;42.826;23.992;2022-07-21T05:57:14;5.95;;;2.95;;
40649;SDS011;26342;42.826;23.992;2022-07-21T05:59:40;11.05;;;4.38;;
40649;SDS011;26342;42.826;23.992;2022-07-21T06:02:06;5.10;;;3.60;;
40649;SDS011;26342;42.826;23.992;2022-07-21T06:04:31;4.70;;;3.20;;
40649;SDS011;26342;42.826;23.992;2022-07-21T06:06:57;4.75;;;2.90;;
40649;SDS011;26342;42.826;23.992;2022-07-21T06:09:22;7.63;;;2.80;;
40649;SDS011;26342;42.826;23.992;2022-07-21T06:11:48;3.45;;;2.10;;
40649;SDS011;26342;42.826;23.992;2022-07-21T06:14:13;2.63;;;1.95;;
40649;SDS011;26342;42.826;23.992;2022-07-21T06:16:39;4.68;;;2.45;;
40649;SDS011;26342;42.826;23.992;2022-07-21T06:19:05;2.70;;;2.40;;
40649;SDS011;26342;42.826;23.992;2022-07-21T06:21:31;7.65;;;2.10;;
40649;SDS011;26342;42.826;23.992;2022-07-21T06:23:57;3.88;;;2.17;;
40649;SDS011;26342;42.826;23.992;2022-07-21T06:26:23;2.28;;;2.00;;
40649;SDS011;26342;42.826;23.992;2022-07-21T06:28:48;2.33;;;1.80;;
40649;SDS011;26342;42.826;23.992;2022-07-21T06:31:13;3.58;;;1.80;;
40649;SDS011;26342;42.826;23.992;2022-07-21T06:33:39;3.97;;;2.33;;
40649;SDS011;26342;42.826;23.992;2022-07-21T06:36:06;2.00;;;1.70;;
40649;SDS011;26342;42.826;23.992;2022-07-21T06:38:31;3.83;;;1.95;;
40649;SDS011;26342;42.826;23.992;2022-07-21T06:40:57;2.67;;;1.70;;
40649;SDS011;26342;42.826;23.992;2022-07-21T06:43:22;2.40;;;1.73;;
40649;SDS011;26342;42.826;23.992;2022-07-21T06:45:48;3.85;;;2.00;;
40649;SDS011;26342;42.826;23.992;2022-07-21T06:48:13;2.25;;;1.60;;
40649;SDS011;26342;42.826;23.992;2022-07-21T06:50:39;1.77;;;1.42;;
40649;SDS011;26342;42.826;23.992;2022-07-21T06:53:04;2.17;;;1.60;;
40649;SDS011;26342;42.826;23.992;2022-07-21T06:55:31;2.70;;;1.70;;
40649;SDS011;26342;42.826;23.992;2022-07-21T06:57:56;3.28;;;1.55;;
40649;SDS011;26342;42.826;23.992;2022-07-21T07:00:22;1.50;;;1.40;;
40649;SDS011;26342;42.826;23.992;2022-07-21T07:02:47;2.75;;;1.70;;
40649;SDS011;26342;42.826;23.992;2022-07-21T07:05:13;1.70;;;1.55;;
40649;SDS011;26342;42.826;23.992;2022-07-21T07:07:39;1.98;;;1.60;;
40649;SDS011;26342;42.826;23.992;2022-07-21T07:10:05;2.25;;;1.80;;
40649;SDS011;26342;42.826;23.992;2022-07-21T07:12:31;2.58;;;1.50;;
40649;SDS011;26342;42.826;23.992;2022-07-21T07:14:56;1.98;;;1.50;;
40649;SDS011;26342;42.826;23.992;2022-07-21T07:17:22;1.55;;;1.33;;
40649;SDS011;26342;42.826;23.992;2022-07-21T07:19:47;2.40;;;1.48;;
40649;SDS011;26342;42.826;23.992;2022-07-21T07:22:13;1.67;;;1.50;;
40649;SDS011;26342;42.826;23.992;2022-07-21T07:24:39;1.83;;;1.63;;
40649;SDS011;26342;42.826;23.992;2022-07-21T07:27:05;2.28;;;1.50;;
40649;SDS011;26342;42.826;23.992;2022-07-21T07:29:30;2.00;;;1.38;;
40649;SDS011;26342;42.826;23.992;2022-07-21T07:31:57;1.38;;;1.27;;
40649;SDS011;26342;42.826;23.992;2022-07-21T07:34:22;2.08;;;1.30;;
40649;SDS011;26342;42.826;23.992;2022-07-21T07:36:48;3.63;;;1.92;;
40649;SDS011;26342;42.826;23.992;2022-07-21T07:39:13;2.20;;;1.20;;
40649;SDS011;26342;42.826;23.992;2022-07-21T07:41:40;1.60;;;1.20;;
40649;SDS011;26342;42.826;23.992;2022-07-21T07:44:07;2.60;;;1.30;;
40649;SDS011;26342;42.826;23.992;2022-07-21T07:46:33;1.67;;;1.58;;
40649;SDS011;26342;42.826;23.992;2022-07-21T07:48:58;2.50;;;1.40;;
40649;SDS011;26342;42.826;23.992;2022-07-21T07:51:24;2.00;;;1.40;;
40649;SDS011;26342;42.826;23.992;2022-07-21T07:53:50;2.58;;;1.48;;
40649;SDS011;26342;42.826;23.992;2022-07-21T07:56:15;3.30;;;1.67;;
40649;SDS011;26342;42.826;23.992;2022-07-21T07:58:41;1.90;;;1.40;;
40649;SDS011;26342;42.826;23.992;2022-07-21T08:01:07;1.58;;;1.20;;
40649;SDS011;26342;42.826;23.992;2022-07-21T08:03:34;1.50;;;1.20;;
40649;SDS011;26342;42.826;23.992;2022-07-21T08:06:00;1.45;;;1.30;;
40649;SDS011;26342;42.826;23.992;2022-07-21T08:08:28;2.15;;;1.25;;
40649;SDS011;26342;42.826;23.992;2022-07-21T08:10:55;2.60;;;1.42;;
40649;SDS011;26342;42.826;23.992;2022-07-21T08:13:20;1.63;;;1.25;;
40649;SDS011;26342;42.826;23.992;2022-07-21T08:15:46;3.92;;;1.60;;
40649;SDS011;26342;42.826;23.992;2022-07-21T08:18:13;2.08;;;1.52;;
40649;SDS011;26342;42.826;23.992;2022-07-21T08:20:39;1.63;;;1.20;;
40649;SDS011;26342;42.826;23.992;2022-07-21T08:23:05;2.05;;;1.30;;
40649;SDS011;26342;42.826;23.992;2022-07-21T08:25:32;1.30;;;1.20;;
40649;SDS011;26342;42.826;23.992;2022-07-21T08:27:58;1.42;;;1.23;;
40649;SDS011;26342;42.826;23.992;2022-07-21T08:30:23;5.10;;;1.58;;
40649;SDS011;26342;42.826;23.992;2022-07-21T08:32:49;1.88;;;1.20;;
40649;SDS011;26342;42.826;23.992;2022-07-21T08:35:15;1.60;;;1.20;;
40649;SDS011;26342;42.826;23.992;2022-07-21T08:37:40;1.88;;;1.30;;
40649;SDS011;26342;42.826;23.992;2022-07-21T08:40:07;2.13;;;1.92;;
40649;SDS011;26342;42.826;23.992;2022-07-21T08:42:34;2.30;;;1.45;;
40649;SDS011;26342;42.826;23.992;2022-07-21T08:45:01;2.10;;;1.40;;
40649;SDS011;26342;42.826;23.992;2022-07-21T08:47:26;1.65;;;1.27;;
40649;SDS011;26342;42.826;23.992;2022-07-21T08:49:53;1.77;;;1.35;;
40649;SDS011;26342;42.826;23.992;2022-07-21T08:52:20;1.50;;;1.17;;
40649;SDS011;26342;42.826;23.992;2022-07-21T08:54:45;1.90;;;1.15;;
40649;SDS011;26342;42.826;23.992;2022-07-21T08:57:11;1.88;;;1.33;;
40649;SDS011;26342;42.826;23.992;2022-07-21T08:59:36;1.65;;;1.35;;
40649;SDS011;26342;42.826;23.992;2022-07-21T09:02:02;1.45;;;1.30;;
40649;SDS011;26342;42.826;23.992;2022-07-21T09:04:29;1.58;;;1.10;;
40649;SDS011;26342;42.826;23.992;2022-07-21T09:06:59;1.70;;;1.20;;
40649;SDS011;26342;42.826;23.992;2022-07-21T09:09:26;3.72;;;1.55;;
40649;SDS011;26342;42.826;23.992;2022-07-21T09:11:53;1.65;;;1.33;;
40649;SDS011;26342;42.826;23.992;2022-07-21T09:14:21;2.20;;;1.50;;
40649;SDS011;26342;42.826;23.992;2022-07-21T09:16:52;1.80;;;1.50;;
40649;SDS011;26342;42.826;23.992;2022-07-21T09:19:23;1.60;;;1.35;;
40649;SDS011;26342;42.826;23.992;2022-07-21T09:21:51;2.53;;;1.40;;
40649;SDS011;26342;42.826;23.992;2022-07-21T09:24:23;2.05;;;1.85;;
40649;SDS011;26342;42.826;23.992;2022-07-21T09:29:26;2.00;;;1.30;;
40649;SDS011;26342;42.826;23.992;2022-07-21T09:31:57;2.55;;;1.83;;
40649;SDS011;26342;42.826;23.992;2022-07-21T09:34:36;2.08;;;1.30;;
40649;SDS011;26342;42.826;23.992;2022-07-21T09:37:04;1.67;;;1.30;;
40649;SDS011;26342;42.826;23.992;2022-07-21T09:39:43;2.22;;;1.60;;
40649;SDS011;26342;42.826;23.992;2022-07-21T09:44:44;1.38;;;1.20;;
40649;SDS011;26342;42.826;23.992;2022-07-21T09:47:13;1.58;;;1.48;;
40649;SDS011;26342;42.826;23.992;2022-07-21T09:49:41;1.83;;;1.38;;
40649;SDS011;26342;42.826;23.992;2022-07-21T09:54:48;1.23;;;1.13;;
40649;SDS011;26342;42.826;23.992;2022-07-21T09:57:17;1.50;;;1.40;;
40649;SDS011;26342;42.826;23.992;2022-07-21T09:59:44;2.95;;;1.60;;
40649;SDS011;26342;42.826;23.992;2022-07-21T10:02:13;2.47;;;1.70;;
40649;SDS011;26342;42.826;23.992;2022-07-21T10:04:41;2.03;;;1.40;;
40649;SDS011;26342;42.826;23.992;2022-07-21T10:07:09;1.63;;;1.40;;
40649;SDS011;26342;42.826;23.992;2022-07-21T10:09:35;1.77;;;1.40;;
40649;SDS011;26342;42.826;23.992;2022-07-21T10:12:01;1.65;;;1.40;;
40649;SDS011;26342;42.826;23.992;2022-07-21T10:14:27;1.55;;;1.38;;
40649;SDS011;26342;42.826;23.992;2022-07-21T10:16:52;1.40;;;1.30;;
40649;SDS011;26342;42.826;23.992;2022-07-21T10:19:23;1.67;;;1.50;;
40649;SDS011;26342;42.826;23.992;2022-07-21T10:24:45;4.22;;;1.40;;
40649;SDS011;26342;42.826;23.992;2022-07-21T10:27:12;1.92;;;1.33;;
40649;SDS011;26342;42.826;23.992;2022-07-21T10:32:14;1.98;;;1.20;;
40649;SDS011;26342;42.826;23.992;2022-07-21T10:34:41;1.60;;;1.45;;
40649;SDS011;26342;42.826;23.992;2022-07-21T10:37:08;1.88;;;1.10;;
40649;SDS011;26342;42.826;23.992;2022-07-21T10:39:34;4.93;;;1.50;;
40649;SDS011;26342;42.826;23.992;2022-07-21T10:41:59;1.48;;;1.30;;
40649;SDS011;26342;42.826;23.992;2022-07-21T10:47:02;1.77;;;1.27;;
40649;SDS011;26342;42.826;23.992;2022-07-21T10:50:29;2.45;;;1.50;;
40649;SDS011;26342;42.826;23.992;2022-07-21T11:00:57;3.03;;;1.35;;
40649;SDS011;26342;42.826;23.992;2022-07-21T11:03:33;1.55;;;1.23;;
40649;SDS011;26342;42.826;23.992;2022-07-21T11:08:31;2.13;;;1.30;;
40649;SDS011;26342;42.826;23.992;2022-07-21T11:14:22;3.83;;;1.50;;
40649;SDS011;26342;42.826;23.992;2022-07-21T11:17:07;2.45;;;1.20;;
40649;SDS011;26342;42.826;23.992;2022-07-21T11:24:52;1.35;;;1.20;;
40649;SDS011;26342;42.826;23.992;2022-07-21T11:27:22;1.20;;;1.10;;
40649;SDS011;26342;42.826;23.992;2022-07-21T11:29:51;1.48;;;1.38;;
40649;SDS011;26342;42.826;23.992;2022-07-21T11:32:21;1.73;;;1.42;;
40649;SDS011;26342;42.826;23.992;2022-07-21T11:39:54;1.48;;;1.30;;
40649;SDS011;26342;42.826;23.992;2022-07-21T11:42:20;1.70;;;1.25;;
40649;SDS011;26342;42.826;23.992;2022-07-21T11:44:46;1.55;;;1.08;;
40649;SDS011;26342;42.826;23.992;2022-07-21T11:47:12;2.13;;;1.20;;
40649;SDS011;26342;42.826;23.992;2022-07-21T11:49:40;1.30;;;1.20;;
40649;SDS011;26342;42.826;23.992;2022-07-21T11:52:08;1.50;;;1.30;;
40649;SDS011;26342;42.826;23.992;2022-07-21T11:54:37;1.55;;;1.13;;
40649;SDS011;26342;42.826;23.992;2022-07-21T11:57:07;1.85;;;1.17;;
40649;SDS011;26342;42.826;23.992;2022-07-21T11:59:33;1.40;;;1.05;;
40649;SDS011;26342;42.826;23.992;2022-07-21T12:02:05;3.03;;;1.65;;
40649;SDS011;26342;42.826;23.992;2022-07-21T12:09:54;1.58;;;1.30;;
40649;SDS011;26342;42.826;23.992;2022-07-21T12:15:26;1.20;;;1.00;;
40649;SDS011;26342;42.826;23.992;2022-07-21T12:17:55;1.70;;;1.20;;
40649;SDS011;26342;42.826;23.992;2022-07-21T12:23:00;1.38;;;1.27;;
40649;SDS011;26342;42.826;23.992;2022-07-21T12:25:37;2.13;;;1.40;;
40649;SDS011;26342;42.826;23.992;2022-07-21T12:28:04;1.90;;;1.38;;
40649;SDS011;26342;42.826;23.992;2022-07-21T12:33:04;4.20;;;1.60;;
40649;SDS011;26342;42.826;23.992;2022-07-21T12:35:32;1.75;;;1.33;;
40649;SDS011;26342;42.826;23.992;2022-07-21T12:40:27;1.00;;;0.90;;
40649;SDS011;26342;42.826;23.992;2022-07-21T12:43:04;1.40;;;1.10;;
40649;SDS011;26342;42.826;23.992;2022-07-21T12:48:20;2.00;;;1.25;;
40649;SDS011;26342;42.826;23.992;2022-07-21T12:51:05;1.60;;;1.48;;
40649;SDS011;26342;42.826;23.992;2022-07-21T12:53:47;1.30;;;1.20;;
40649;SDS011;26342;42.826;23.992;2022-07-21T12:56:16;2.00;;;1.33;;
40649;SDS011;26342;42.826;23.992;2022-07-21T12:58:43;0.90;;;0.90;;
40649;SDS011;26342;42.826;23.992;2022-07-21T13:01:09;1.63;;;1.27;;
40649;SDS011;26342;42.826;23.992;2022-07-21T13:03:36;1.92;;;1.23;;
40649;SDS011;26342;42.826;23.992;2022-07-21T13:06:02;1.17;;;1.00;;
40649;SDS011;26342;42.826;23.992;2022-07-21T13:08:29;1.40;;;1.00;;
40649;SDS011;26342;42.826;23.992;2022-07-21T13:10:55;1.35;;;1.17;;
40649;SDS011;26342;42.826;23.992;2022-07-21T13:13:21;2.30;;;2.00;;
40649;SDS011;26342;42.826;23.992;2022-07-21T13:15:46;2.92;;;1.30;;
40649;SDS011;26342;42.826;23.992;2022-07-21T13:18:12;2.08;;;1.20;;
40649;SDS011;26342;42.826;23.992;2022-07-21T13:20:37;1.42;;;1.20;;
40649;SDS011;26342;42.826;23.992;2022-07-21T13:23:03;1.30;;;1.20;;
40649;SDS011;26342;42.826;23.992;2022-07-21T13:25:28;2.40;;;1.40;;
40649;SDS011;26342;42.826;23.992;2022-07-21T13:27:54;1.75;;;1.40;;
40649;SDS011;26342;42.826;23.992;2022-07-21T13:30:19;2.10;;;1.42;;
40649;SDS011;26342;42.826;23.992;2022-07-21T13:32:45;1.23;;;1.13;;
40649;SDS011;26342;42.826;23.992;2022-07-21T13:35:10;2.08;;;1.50;;
40649;SDS011;26342;42.826;23.992;2022-07-21T13:37:36;1.67;;;1.00;;
40649;SDS011;26342;42.826;23.992;2022-07-21T13:40:03;1.83;;;1.20;;
40649;SDS011;26342;42.826;23.992;2022-07-21T13:42:29;1.70;;;1.30;;
40649;SDS011;26342;42.826;23.992;2022-07-21T13:44:54;1.70;;;1.60;;
40649;SDS011;26342;42.826;23.992;2022-07-21T13:47:20;1.77;;;1.30;;
40649;SDS011;26342;42.826;23.992;2022-07-21T13:49:45;2.08;;;1.40;;
40649;SDS011;26342;42.826;23.992;2022-07-21T13:52:11;3.50;;;1.50;;
40649;SDS011;26342;42.826;23.992;2022-07-21T13:54:36;2.90;;;1.52;;
40649;SDS011;26342;42.826;23.992;2022-07-21T13:57:02;1.42;;;1.25;;
40649;SDS011;26342;42.826;23.992;2022-07-21T13:59:28;2.10;;;1.40;;
40649;SDS011;26342;42.826;23.992;2022-07-21T14:01:53;2.72;;;1.40;;
40649;SDS011;26342;42.826;23.992;2022-07-21T14:04:19;2.63;;;1.38;;
40649;SDS011;26342;42.826;23.992;2022-07-21T14:06:44;1.73;;;1.38;;
40649;SDS011;26342;42.826;23.992;2022-07-21T14:09:12;2.35;;;1.20;;
40649;SDS011;26342;42.826;23.992;2022-07-21T14:11:39;1.83;;;1.30;;
40649;SDS011;26342;42.826;23.992;2022-07-21T14:14:04;1.90;;;1.40;;
40649;SDS011;26342;42.826;23.992;2022-07-21T14:16:30;1.98;;;1.35;;
40649;SDS011;26342;42.826;23.992;2022-07-21T14:18:55;1.60;;;1.30;;
40649;SDS011;26342;42.826;23.992;2022-07-21T14:21:21;1.95;;;1.45;;
40649;SDS011;26342;42.826;23.992;2022-07-21T14:23:46;1.90;;;1.30;;
40649;SDS011;26342;42.826;23.992;2022-07-21T14:26:12;2.53;;;1.50;;
40649;SDS011;26342;42.826;23.992;2022-07-21T14:28:38;2.20;;;1.27;;
40649;SDS011;26342;42.826;23.992;2022-07-21T14:31:03;2.85;;;1.67;;
40649;SDS011;26342;42.826;23.992;2022-07-21T14:33:29;3.00;;;1.40;;
40649;SDS011;26342;42.826;23.992;2022-07-21T14:35:55;1.58;;;1.33;;
40649;SDS011;26342;42.826;23.992;2022-07-21T14:38:21;2.05;;;1.35;;
40649;SDS011;26342;42.826;23.992;2022-07-21T14:40:46;1.55;;;1.10;;
40649;SDS011;26342;42.826;23.992;2022-07-21T14:43:12;1.77;;;1.30;;
40649;SDS011;26342;42.826;23.992;2022-07-21T14:45:38;1.77;;;1.35;;
40649;SDS011;26342;42.826;23.992;2022-07-21T14:48:03;1.35;;;1.13;;
40649;SDS011;26342;42.826;23.992;2022-07-21T14:50:29;1.55;;;1.35;;
40649;SDS011;26342;42.826;23.992;2022-07-21T14:52:55;2.97;;;2.08;;
40649;SDS011;26342;42.826;23.992;2022-07-21T14:55:21;3.67;;;1.70;;
40649;SDS011;26342;42.826;23.992;2022-07-21T14:57:50;1.98;;;1.30;;
40649;SDS011;26342;42.826;23.992;2022-07-21T15:00:16;2.35;;;1.63;;
40649;SDS011;26342;42.826;23.992;2022-07-21T15:02:42;7.18;;;1.88;;
40649;SDS011;26342;42.826;23.992;2022-07-21T15:05:08;2.28;;;1.40;;
40649;SDS011;26342;42.826;23.992;2022-07-21T15:07:33;1.65;;;1.40;;
40649;SDS011;26342;42.826;23.992;2022-07-21T15:09:58;1.95;;;1.52;;
40649;SDS011;26342;42.826;23.992;2022-07-21T15:12:24;1.92;;;1.17;;
40649;SDS011;26342;42.826;23.992;2022-07-21T15:14:50;2.28;;;1.73;;
40649;SDS011;26342;42.826;23.992;2022-07-21T15:17:16;1.73;;;1.45;;
40649;SDS011;26342;42.826;23.992;2022-07-21T15:19:42;1.77;;;1.27;;
40649;SDS011;26342;42.826;23.992;2022-07-21T15:22:08;2.53;;;1.42;;
40649;SDS011;26342;42.826;23.992;2022-07-21T15:24:34;1.88;;;1.23;;
40649;SDS011;26342;42.826;23.992;2022-07-21T15:27:00;2.13;;;1.40;;
40649;SDS011;26342;42.826;23.992;2022-07-21T15:29:25;2.30;;;1.98;;